Terminal Aerodrome Forecast
Issued by NWS Brownsville, TX

Home | Current Version | Previous Version | Text Only | Print | Product List | Glossary On
Versions: 1 2 3 4 5 6 7 8 9 10 11 12 13 14 15 16 17 18 19 20 21 22
000
FTUS44 KBRO 302320
TAFHRL
TAF
KHRL 302320Z 0100/0124 08009KT P6SM FEW250
     FM010600 14004KT 4SM BR BKN020
     FM010900 14003KT 2SM BR BKN015
     FM011500 11009KT 4SM HZ BKN020
     FM011800 11012KT 6SM HZ SCT030=

USA.gov is the U.S. government's official web portal to all federal, state and local government web resources and services.